createdAt,value
2023-02-11T00:02:59.073Z,8.40
2023-02-11T00:06:38.802Z,18.48
2023-02-11T00:09:47.989Z,13.35
2023-02-11T00:13:00.008Z,16.67
2023-02-11T00:16:23.447Z,13.98
2023-02-11T00:19:28.579Z,13.17
2023-02-11T00:22:51.096Z,12.80
2023-02-11T00:26:40.993Z,9.70
2023-02-11T00:29:43.935Z,7.90
2023-02-11T00:33:08.039Z,18.87
2023-02-11T00:36:31.437Z,10.85
2023-02-11T00:39:43.331Z,15.80
2023-02-11T00:43:07.274Z,9.98
2023-02-11T00:46:10.811Z,12.40
2023-02-11T00:49:15.973Z,17.15
2023-02-11T00:52:39.916Z,8.68
2023-02-11T00:55:49.409Z,13.20
2023-02-11T00:58:54.024Z,16.95
2023-02-11T01:01:56.966Z,30.85
2023-02-11T01:05:05.579Z,10.25
2023-02-11T01:08:10.270Z,9.23
2023-02-11T01:11:19.694Z,11.40
2023-02-11T01:14:42.747Z,14.52
2023-02-11T01:17:50.436Z,10.45
2023-02-11T01:21:16.606Z,9.73
2023-02-11T01:24:20.983Z,22.77
2023-02-11T01:27:23.486Z,13.55
2023-02-11T01:30:31.772Z,12.13
2023-02-11T01:33:41.217Z,6.90
2023-02-11T01:37:05.987Z,4.97
2023-02-11T01:40:20.449Z,6.15
2023-02-11T01:43:37.815Z,17.40
2023-02-11T01:47:06.456Z,11.07
2023-02-11T01:50:13.257Z,23.65
2023-02-11T01:53:37.332Z,11.50
2023-02-11T01:57:07.503Z,11.38
2023-02-11T02:00:36.694Z,18.00
2023-02-11T02:04:13.480Z,7.70
2023-02-11T02:07:49.809Z,11.45
2023-02-11T02:11:01.127Z,18.55
2023-02-11T02:14:27.051Z,9.55
2023-02-11T02:18:30.184Z,14.60
2023-02-11T02:21:43.567Z,10.57
2023-02-11T02:25:01.187Z,12.77
2023-02-11T02:31:50.592Z,6.07
2023-02-11T02:35:26.520Z,11.25
2023-02-11T02:38:40.889Z,10.90
2023-02-11T02:41:53.659Z,8.00
2023-02-11T02:48:01.930Z,13.48
2023-02-11T02:51:42.822Z,11.80
2023-02-11T02:54:59.806Z,11.32
2023-02-11T02:58:43.127Z,10.13
2023-02-11T03:01:57.923Z,14.13
2023-02-11T03:05:12.233Z,9.32
2023-02-11T03:08:37.846Z,9.07
2023-02-11T03:11:47.690Z,8.55
2023-02-11T03:14:52.795Z,12.00
2023-02-11T03:18:03.224Z,12.88
2023-02-11T03:21:09.306Z,6.20
2023-02-11T03:24:20.840Z,8.75
2023-02-11T03:27:47.819Z,9.43
2023-02-11T03:31:20.620Z,7.68
2023-02-11T03:34:51.445Z,12.95
2023-02-11T03:38:16.450Z,6.87
2023-02-11T03:41:23.542Z,14.63
2023-02-11T03:44:33.414Z,7.82
2023-02-11T03:48:09.233Z,7.97
2023-02-11T03:51:33.689Z,9.25
2023-02-11T03:55:21.071Z,7.55
2023-02-11T03:58:27.567Z,4.22
2023-02-11T04:01:35.960Z,5.20
2023-02-11T04:04:44.115Z,10.05
2023-02-11T04:07:50.978Z,10.18
2023-02-11T04:11:19.060Z,6.45
2023-02-11T04:15:02.025Z,6.28
2023-02-11T04:18:26.950Z,6.70
2023-02-11T04:21:49.891Z,8.48
2023-02-11T04:24:55.464Z,7.93
2023-02-11T04:28:20.081Z,13.23
2023-02-11T04:31:26.305Z,13.02
2023-02-11T04:34:29.809Z,12.60
2023-02-11T04:37:36.228Z,8.85
2023-02-11T04:40:46.682Z,5.75
2023-02-11T04:43:49.964Z,4.50
2023-02-11T04:46:53.629Z,14.27
2023-02-11T04:50:00.595Z,7.35
2023-02-11T04:53:06.310Z,7.80
2023-02-11T04:56:10.567Z,7.10
2023-02-11T04:59:15.116Z,7.07
2023-02-11T05:02:18.940Z,15.75
2023-02-11T05:05:42.598Z,6.28
2023-02-11T05:09:12.382Z,8.00
2023-02-11T05:12:19.002Z,7.80
2023-02-11T05:15:26.988Z,6.90
2023-02-11T05:18:30.339Z,9.50
2023-02-11T05:21:36.311Z,10.45
2023-02-11T05:24:42.911Z,6.35
2023-02-11T05:28:07.356Z,5.65
2023-02-11T05:31:11.542Z,10.95
2023-02-11T05:34:19.334Z,6.87
2023-02-11T05:37:24.555Z,8.10
2023-02-11T05:40:29.267Z,16.60
2023-02-11T05:43:36.592Z,11.05
2023-02-11T05:46:47.254Z,11.15
2023-02-11T05:49:56.410Z,14.43
2023-02-11T05:52:59.842Z,7.85
2023-02-11T05:56:11.997Z,7.85
2023-02-11T05:59:16.780Z,12.30
2023-02-11T06:02:21.341Z,13.15
2023-02-11T06:05:30.718Z,6.85
2023-02-11T06:08:43.052Z,10.00
2023-02-11T06:12:10.619Z,6.12
2023-02-11T06:15:35.682Z,8.70
2023-02-11T06:19:07.736Z,10.82
2023-02-11T06:22:10.634Z,6.40
2023-02-11T06:25:33.910Z,9.98
2023-02-11T06:28:40.024Z,9.65
2023-02-11T06:31:46.000Z,4.45
2023-02-11T06:34:52.162Z,7.85
2023-02-11T06:37:59.822Z,8.55
2023-02-11T06:41:47.997Z,17.55
2023-02-11T06:45:20.723Z,8.13
2023-02-11T06:48:29.347Z,13.57
2023-02-11T06:51:53.155Z,14.00
2023-02-11T06:54:56.032Z,17.40
2023-02-11T06:58:00.273Z,14.57
2023-02-11T07:01:09.100Z,13.32
2023-02-11T07:04:16.956Z,8.40
2023-02-11T07:07:20.570Z,11.23
2023-02-11T07:10:26.519Z,12.37
2023-02-11T07:13:29.112Z,11.60
2023-02-11T07:16:33.346Z,10.65
2023-02-11T07:19:35.958Z,12.35
2023-02-11T07:23:12.526Z,8.15
2023-02-11T07:26:23.293Z,18.37
2023-02-11T07:29:28.085Z,16.33
2023-02-11T07:32:36.270Z,16.52
2023-02-11T07:35:42.543Z,15.93
2023-02-11T07:39:03.071Z,15.68
2023-02-11T07:42:06.655Z,11.95
2023-02-11T07:45:29.846Z,18.98
2023-02-11T07:49:05.906Z,20.05
2023-02-11T07:52:11.416Z,22.95
2023-02-11T07:55:14.750Z,17.83
2023-02-11T07:58:18.153Z,17.87
2023-02-11T08:01:28.363Z,14.27
2023-02-11T08:04:53.958Z,16.90
2023-02-11T08:07:58.575Z,12.75
2023-02-11T08:11:15.888Z,16.75
2023-02-11T08:14:38.635Z,15.65
2023-02-11T08:18:13.967Z,21.50
2023-02-11T08:21:37.904Z,13.45
2023-02-11T08:24:46.937Z,18.65
2023-02-11T08:27:55.309Z,21.10
2023-02-11T08:31:05.724Z,26.23
2023-02-11T08:34:12.016Z,25.75
2023-02-11T08:37:18.337Z,23.73
2023-02-11T08:40:21.642Z,26.15
2023-02-11T08:43:28.090Z,25.40
2023-02-11T08:46:52.111Z,26.35
2023-02-11T08:49:56.598Z,23.60
2023-02-11T08:53:20.257Z,26.98
2023-02-11T08:56:33.708Z,28.30
2023-02-11T08:59:40.152Z,22.33
2023-02-11T09:02:42.741Z,24.23
2023-02-11T09:05:50.578Z,21.85
2023-02-11T09:12:03.608Z,21.08
2023-02-11T09:15:38.975Z,15.32
2023-02-11T09:19:23.554Z,14.82
2023-02-11T09:22:48.666Z,20.35
2023-02-11T09:26:00.103Z,20.52
2023-02-11T09:29:05.136Z,20.05
2023-02-11T09:32:12.476Z,24.83
2023-02-11T09:35:19.601Z,24.58
2023-02-11T09:38:44.254Z,19.67
2023-02-11T09:42:10.838Z,18.80
2023-02-11T09:45:28.758Z,22.42
2023-02-11T09:48:55.729Z,19.27
2023-02-11T09:52:27.272Z,17.73
2023-02-11T09:55:56.069Z,17.92
2023-02-11T09:58:59.648Z,18.92
2023-02-11T10:02:14.540Z,14.65
2023-02-11T10:06:04.028Z,20.45
2023-02-11T10:09:19.058Z,20.50
2023-02-11T10:12:49.847Z,17.87
2023-02-11T10:16:06.820Z,18.05
2023-02-11T10:19:51.703Z,16.90
2023-02-11T10:23:21.553Z,19.45
2023-02-11T10:26:32.310Z,24.37
2023-02-11T10:29:43.477Z,26.05
2023-02-11T10:32:54.738Z,24.37
2023-02-11T10:36:18.662Z,20.60
2023-02-11T10:39:28.154Z,20.27
2023-02-11T10:42:32.663Z,20.20
2023-02-11T10:46:17.734Z,19.58
2023-02-11T10:49:39.432Z,19.60
2023-02-11T10:52:44.358Z,25.95
2023-02-11T10:56:00.020Z,16.85
2023-02-11T10:59:14.010Z,19.12
2023-02-11T11:02:38.824Z,28.10
2023-02-11T11:06:02.919Z,27.37
2023-02-11T11:09:21.892Z,22.37
2023-02-11T11:12:48.988Z,19.95
2023-02-11T11:19:21.834Z,16.90
2023-02-11T11:22:47.461Z,24.65
2023-02-11T11:26:29.271Z,24.25
2023-02-11T11:29:51.491Z,19.83
2023-02-11T11:32:54.738Z,19.60
2023-02-11T11:36:12.861Z,21.23
2023-02-11T11:39:19.550Z,22.25
2023-02-11T11:42:33.915Z,25.73
2023-02-11T11:45:59.543Z,17.60
2023-02-11T11:49:31.054Z,29.52
2023-02-11T11:53:19.348Z,21.23
2023-02-11T11:56:26.440Z,29.10
2023-02-11T12:03:19.301Z,17.27
2023-02-11T12:06:31.384Z,21.20
2023-02-11T12:09:51.285Z,20.67
2023-02-11T12:13:08.021Z,18.00
2023-02-11T12:16:23.437Z,17.95
2023-02-11T12:20:03.810Z,22.00
2023-02-11T12:23:38.728Z,21.10
2023-02-11T12:26:56.654Z,19.92
2023-02-11T12:30:15.857Z,23.12
2023-02-11T12:33:26.974Z,17.80
2023-02-11T12:37:27.880Z,18.45
2023-02-11T12:41:07.202Z,16.58
2023-02-11T12:44:48.480Z,16.15
2023-02-11T12:47:58.264Z,21.63
2023-02-11T12:51:05.562Z,16.05
2023-02-11T12:54:11.068Z,18.12
2023-02-11T12:57:24.749Z,20.92
2023-02-11T13:00:47.692Z,16.67
2023-02-11T13:03:59.179Z,19.10
2023-02-11T13:07:26.161Z,16.98
2023-02-11T13:10:38.319Z,20.52
2023-02-11T13:14:01.823Z,15.93
2023-02-11T13:17:20.165Z,16.90
2023-02-11T13:20:49.372Z,18.37
2023-02-11T13:24:08.497Z,20.50
2023-02-11T13:27:45.963Z,17.50
2023-02-11T13:30:57.601Z,20.98
2023-02-11T13:34:01.306Z,18.60
2023-02-11T13:37:12.927Z,16.80
2023-02-11T13:40:41.055Z,15.70
2023-02-11T13:43:45.589Z,17.37
2023-02-11T13:47:01.529Z,17.25
2023-02-11T13:50:08.459Z,15.32
2023-02-11T13:53:12.357Z,20.85
2023-02-11T13:56:46.338Z,20.83
2023-02-11T13:59:51.030Z,20.23
2023-02-11T14:03:32.278Z,16.30
2023-02-11T14:07:45.537Z,14.02
2023-02-11T14:10:53.167Z,18.92
2023-02-11T14:14:18.178Z,22.40
2023-02-11T14:17:31.631Z,19.50
2023-02-11T14:20:39.718Z,15.65
2023-02-11T14:24:02.335Z,14.95
2023-02-11T14:27:30.678Z,13.80
2023-02-11T14:30:42.830Z,11.25
2023-02-11T14:34:24.520Z,11.57
2023-02-11T14:38:07.562Z,12.60
2023-02-11T14:41:51.496Z,12.85
2023-02-11T14:45:05.241Z,12.20
2023-02-11T14:48:16.052Z,14.52
2023-02-11T14:51:27.850Z,12.93
2023-02-11T14:54:32.253Z,9.45
2023-02-11T14:57:37.688Z,14.90
2023-02-11T15:00:53.881Z,14.52
2023-02-11T15:04:29.220Z,13.93
2023-02-11T15:07:32.735Z,13.48
2023-02-11T15:10:45.632Z,11.65
2023-02-11T15:14:22.681Z,14.77
2023-02-11T15:17:49.215Z,9.80
2023-02-11T15:20:53.339Z,17.48
2023-02-11T15:24:21.987Z,9.85
2023-02-11T15:27:27.392Z,12.00
2023-02-11T15:30:35.448Z,16.77
2023-02-11T15:33:42.624Z,10.93
2023-02-11T15:36:48.268Z,12.95
2023-02-11T15:39:52.941Z,12.20
2023-02-11T15:43:19.607Z,13.32
2023-02-11T15:46:24.304Z,12.27
2023-02-11T15:49:33.410Z,14.07
2023-02-11T15:52:41.764Z,12.02
2023-02-11T15:55:46.490Z,16.42
2023-02-11T15:59:00.333Z,11.98
2023-02-11T16:02:16.905Z,12.80
2023-02-11T16:05:26.862Z,15.95
2023-02-11T16:08:30.000Z,15.07
2023-02-11T16:11:53.766Z,17.27
2023-02-11T16:16:05.790Z,18.75
2023-02-11T16:19:35.251Z,19.92
2023-02-11T16:26:24.962Z,16.90
2023-02-11T16:29:55.682Z,11.27
2023-02-11T16:33:19.244Z,13.80
2023-02-11T16:36:27.436Z,14.10
2023-02-11T16:39:58.413Z,12.45
2023-02-11T16:43:22.996Z,11.75
2023-02-11T16:46:48.224Z,13.40
2023-02-11T16:49:51.551Z,15.68
2023-02-11T16:52:56.918Z,12.18
2023-02-11T16:56:29.059Z,19.33
2023-02-11T16:59:39.817Z,22.85
2023-02-11T17:02:47.176Z,20.40
2023-02-11T17:06:11.788Z,19.25
2023-02-11T17:09:35.439Z,21.05
2023-02-11T17:13:01.774Z,25.42
2023-02-11T17:16:25.295Z,23.65
2023-02-11T17:19:31.492Z,26.20
2023-02-11T17:22:58.229Z,21.70
2023-02-11T17:26:02.085Z,26.27
2023-02-11T17:29:12.356Z,27.50
2023-02-11T17:32:16.547Z,33.88
2023-02-11T17:35:42.291Z,24.75
2023-02-11T17:38:51.336Z,21.85
2023-02-11T17:41:56.671Z,20.85
2023-02-11T17:45:48.124Z,22.13
2023-02-11T17:49:30.645Z,19.25
2023-02-11T17:56:42.651Z,16.70
2023-02-11T17:59:49.064Z,18.70
2023-02-11T18:02:52.295Z,18.12
2023-02-11T18:06:01.194Z,24.50
2023-02-11T18:09:26.817Z,26.17
2023-02-11T18:12:50.232Z,22.45
2023-02-11T18:15:55.589Z,18.35
2023-02-11T18:19:03.604Z,28.05
2023-02-11T18:22:11.995Z,28.05
2023-02-11T18:25:21.635Z,31.62
2023-02-11T18:28:46.112Z,19.85
2023-02-11T18:32:14.413Z,19.75
2023-02-11T18:35:42.422Z,18.55
2023-02-11T18:38:48.753Z,17.60
2023-02-11T18:42:34.786Z,16.45
2023-02-11T18:46:12.966Z,14.23
2023-02-11T18:53:20.110Z,13.18
2023-02-11T18:56:45.306Z,21.62
2023-02-11T19:00:31.207Z,17.15
2023-02-11T19:08:28.733Z,23.25
2023-02-11T19:15:11.782Z,15.43
2023-02-11T19:18:19.076Z,10.70
2023-02-11T19:21:43.997Z,17.50
2023-02-11T19:24:54.338Z,18.92
2023-02-11T19:27:57.822Z,25.42
2023-02-11T19:31:48.872Z,19.17
2023-02-11T19:34:53.575Z,23.80
2023-02-11T19:38:04.987Z,20.62
2023-02-11T19:41:12.289Z,16.55
2023-02-11T19:44:36.407Z,14.35
2023-02-11T19:48:12.973Z,19.30
2023-02-11T19:51:19.250Z,14.30
2023-02-11T19:54:28.874Z,19.00
2023-02-11T19:57:55.837Z,11.88
2023-02-11T20:01:11.212Z,13.95
2023-02-11T20:04:54.833Z,15.45
2023-02-11T20:08:01.318Z,13.82
2023-02-11T20:11:16.318Z,12.70
2023-02-11T20:14:19.431Z,12.80
2023-02-11T20:18:04.735Z,11.80
2023-02-11T20:21:08.799Z,13.50
2023-02-11T20:24:34.636Z,13.27
2023-02-11T20:27:52.854Z,15.43
2023-02-11T20:31:18.684Z,13.13
2023-02-11T20:34:33.334Z,17.52
2023-02-11T20:38:05.654Z,15.07
2023-02-11T20:41:40.122Z,16.90
2023-02-11T20:45:06.128Z,13.18
2023-02-11T20:48:29.387Z,15.57
2023-02-11T20:51:35.123Z,18.52
2023-02-11T20:55:01.706Z,22.83
2023-02-11T20:58:06.940Z,17.92
2023-02-11T21:01:43.417Z,25.70
2023-02-11T21:05:14.985Z,12.75
2023-02-11T21:08:38.051Z,14.75
2023-02-11T21:11:44.028Z,21.27
2023-02-11T21:15:11.486Z,21.30
2023-02-11T21:18:37.319Z,17.02
2023-02-11T21:22:02.067Z,16.00
2023-02-11T21:25:45.548Z,19.45
2023-02-11T21:28:52.259Z,20.25
2023-02-11T21:32:17.779Z,17.42
2023-02-11T21:35:40.526Z,14.63
2023-02-11T21:39:07.176Z,14.95
2023-02-11T21:42:30.194Z,8.65
2023-02-11T21:45:34.994Z,7.65
2023-02-11T21:49:11.428Z,13.77
2023-02-11T21:52:14.364Z,12.10
2023-02-11T21:55:38.528Z,9.52
2023-02-11T21:58:47.459Z,10.55
2023-02-11T22:02:11.174Z,12.77
2023-02-11T22:05:35.107Z,8.65
2023-02-11T22:08:39.618Z,12.70
2023-02-11T22:11:50.234Z,11.18
2023-02-11T22:15:33.271Z,7.70
2023-02-11T22:18:38.272Z,12.02
2023-02-11T22:22:03.038Z,9.98
2023-02-11T22:25:26.421Z,8.45
2023-02-11T22:28:50.098Z,10.40
2023-02-11T22:31:55.489Z,6.47
2023-02-11T22:35:18.643Z,12.27
2023-02-11T22:38:43.470Z,9.77
2023-02-11T22:41:47.742Z,6.43
2023-02-11T22:45:11.813Z,7.40
2023-02-11T22:48:17.144Z,8.60
2023-02-11T22:51:41.112Z,13.80
2023-02-11T22:54:51.384Z,10.50
2023-02-11T22:57:57.323Z,11.15
2023-02-11T23:01:05.711Z,10.32
2023-02-11T23:04:14.074Z,7.62
2023-02-11T23:07:20.474Z,10.60
2023-02-11T23:10:24.037Z,6.72
2023-02-11T23:16:35.565Z,7.35
2023-02-11T23:19:42.409Z,11.27
2023-02-11T23:23:13.939Z,8.50
2023-02-11T23:26:26.348Z,7.75
2023-02-11T23:29:36.149Z,9.25
2023-02-11T23:32:40.960Z,6.43
2023-02-11T23:36:05.479Z,8.75
2023-02-11T23:39:15.942Z,11.65
2023-02-11T23:42:21.788Z,8.90
2023-02-11T23:45:52.865Z,8.38
2023-02-11T23:49:21.018Z,8.10
2023-02-11T23:52:31.949Z,8.93
2023-02-11T23:55:39.969Z,8.93
